createdAt,value
2018-01-04T00:00:03.306Z,98007.30
2018-01-04T00:02:30.837Z,98028.30
2018-01-04T00:04:58.371Z,98016.41
2018-01-04T00:07:25.862Z,98027.58
2018-01-04T00:09:53.472Z,98010.27
2018-01-04T00:12:20.913Z,98008.01
2018-01-04T00:14:48.457Z,98010.57
2018-01-04T00:17:15.947Z,98009.94
2018-01-04T00:19:43.432Z,98015.16
2018-01-04T00:22:12.841Z,98025.19
2018-01-04T00:24:40.338Z,98031.20
2018-01-04T00:27:07.860Z,98047.41
2018-01-04T00:29:35.331Z,98048.28
2018-01-04T00:32:02.834Z,98059.02
2018-01-04T00:34:30.327Z,98048.30
2018-01-04T00:36:57.773Z,98056.92
2018-01-04T00:39:25.238Z,98062.09
2018-01-04T00:41:52.689Z,98058.83
2018-01-04T00:44:20.141Z,98078.95
2018-01-04T00:46:47.611Z,98061.72
2018-01-04T00:49:15.057Z,98073.23
2018-01-04T00:51:42.516Z,98060.96
2018-01-04T00:54:09.952Z,98072.70
2018-01-04T00:56:37.408Z,98073.80
2018-01-04T00:59:04.857Z,98081.36
2018-01-04T01:01:32.332Z,98077.67
2018-01-04T01:03:59.794Z,98084.17
2018-01-04T01:06:27.254Z,98089.77
2018-01-04T01:08:54.721Z,98087.09
2018-01-04T01:11:22.169Z,98121.03
2018-01-04T01:13:49.623Z,98099.62
2018-01-04T01:16:17.076Z,98094.68
2018-01-04T01:18:44.545Z,98092.89
2018-01-04T01:21:12.003Z,98096.53
2018-01-04T01:23:39.457Z,98091.62
2018-01-04T01:26:06.907Z,98114.53
2018-01-04T01:28:34.360Z,98111.88
2018-01-04T01:31:01.809Z,98098.97
2018-01-04T01:33:29.265Z,98112.11
2018-01-04T01:35:56.704Z,98110.22
2018-01-04T01:38:24.159Z,98107.56
2018-01-04T01:40:51.646Z,98105.54
2018-01-04T01:43:19.114Z,98119.03
2018-01-04T01:45:46.613Z,98112.18
2018-01-04T01:48:14.092Z,98112.66
2018-01-04T01:50:41.545Z,98115.38
2018-01-04T01:53:09.016Z,98102.03
2018-01-04T01:55:36.481Z,98128.98
2018-01-04T01:58:04.054Z,98119.17
2018-01-04T02:00:31.524Z,98130.36
2018-01-04T02:02:58.985Z,98144.00
2018-01-04T02:05:26.446Z,98141.34
2018-01-04T02:07:53.903Z,98122.59
2018-01-04T02:10:21.376Z,98132.10
2018-01-04T02:12:48.829Z,98138.21
2018-01-04T02:15:16.310Z,98144.34
2018-01-04T02:17:43.775Z,98152.64
2018-01-04T02:20:23.040Z,98154.13
2018-01-04T02:23:02.432Z,98150.41
2018-01-04T02:25:41.647Z,98160.25
2018-01-04T02:31:20.555Z,98153.66
2018-01-04T02:33:59.954Z,98146.19
2018-01-04T02:36:39.244Z,98157.92
2018-01-04T02:39:18.805Z,98159.48
2018-01-04T02:45:00.077Z,98153.20
2018-01-04T02:47:27.532Z,98162.53
2018-01-04T02:49:55.002Z,98155.87
2018-01-04T02:52:22.451Z,98158.86
2018-01-04T02:54:49.936Z,98147.27
2018-01-04T02:57:17.389Z,98183.22
2018-01-04T02:59:44.858Z,98160.81
2018-01-04T03:02:12.343Z,98170.65
2018-01-04T03:04:39.788Z,98170.39
2018-01-04T03:07:07.282Z,98173.05
2018-01-04T03:09:34.736Z,98173.61
2018-01-04T03:12:02.182Z,98170.59
2018-01-04T03:14:29.657Z,98175.84
2018-01-04T03:16:57.125Z,98173.45
2018-01-04T03:19:24.591Z,98169.35
2018-01-04T03:21:57.721Z,98176.08
2018-01-04T03:24:30.824Z,98173.41
2018-01-04T03:27:03.898Z,98167.05
2018-01-04T03:29:31.355Z,98182.83
2018-01-04T03:32:04.392Z,98168.25
2018-01-04T03:37:38.981Z,98185.53
2018-01-04T03:40:12.100Z,98183.64
2018-01-04T03:42:45.161Z,98173.25
2018-01-04T03:45:20.434Z,98167.41
2018-01-04T03:47:53.494Z,98182.22
2018-01-04T03:50:26.549Z,98196.09
2018-01-04T03:52:53.998Z,98182.47
2018-01-04T03:55:27.065Z,98194.85
2018-01-04T03:57:54.526Z,98191.64
2018-01-04T04:00:27.677Z,98186.31
2018-01-04T04:02:56.924Z,98193.55
2018-01-04T04:05:29.963Z,98188.68
2018-01-04T04:08:02.970Z,98184.33
2018-01-04T04:10:30.481Z,98179.55
2018-01-04T04:12:57.989Z,98194.82
2018-01-04T04:15:25.466Z,98201.80
2018-01-04T04:17:52.915Z,98193.39
2018-01-04T04:20:20.466Z,98206.71
2018-01-04T04:22:47.976Z,98216.50
2018-01-04T04:25:15.455Z,98210.32
2018-01-04T04:27:42.918Z,98212.30
2018-01-04T04:30:10.360Z,98212.05
2018-01-04T04:32:37.806Z,98217.53
2018-01-04T04:35:05.283Z,98210.19
2018-01-04T04:37:32.826Z,98214.12
2018-01-04T04:40:00.288Z,98230.01
2018-01-04T04:42:27.747Z,98229.36
2018-01-04T04:44:55.204Z,98221.98
2018-01-04T04:47:22.724Z,98226.79
2018-01-04T04:49:50.186Z,98226.40
2018-01-04T04:52:17.645Z,98231.63
2018-01-04T04:54:45.142Z,98236.97
2018-01-04T04:57:12.607Z,98232.28
2018-01-04T04:59:40.083Z,98233.64
2018-01-04T05:02:07.546Z,98234.81
2018-01-04T05:04:35.026Z,98236.05
2018-01-04T05:07:02.472Z,98242.88
2018-01-04T05:09:29.938Z,98245.84
2018-01-04T05:11:57.389Z,98228.13
2018-01-04T05:14:24.859Z,98246.97
2018-01-04T05:16:52.328Z,98249.22
2018-01-04T05:19:19.806Z,98235.27
2018-01-04T05:21:47.260Z,98236.41
2018-01-04T05:24:14.777Z,98234.85
2018-01-04T05:26:43.210Z,98247.63
2018-01-04T05:29:10.669Z,98254.26
2018-01-04T05:31:38.156Z,98252.59
2018-01-04T05:34:05.603Z,98249.61
2018-01-04T05:36:33.074Z,98247.95
2018-01-04T05:39:00.566Z,98259.20
2018-01-04T05:41:28.041Z,98261.73
2018-01-04T05:43:55.506Z,98272.26
2018-01-04T05:46:23.067Z,98276.78
2018-01-04T05:48:50.548Z,98284.88
2018-01-04T05:51:18.025Z,98289.13
2018-01-04T05:53:45.499Z,98288.84
2018-01-04T05:56:13.017Z,98293.70
2018-01-04T05:58:40.470Z,98296.77
2018-01-04T06:01:07.939Z,98300.05
2018-01-04T06:03:35.393Z,98291.41
2018-01-04T06:06:02.943Z,98294.28
2018-01-04T06:08:30.631Z,98297.07
2018-01-04T06:10:58.151Z,98291.36
2018-01-04T06:13:25.616Z,98288.25
2018-01-04T06:15:53.105Z,98297.62
2018-01-04T06:18:20.578Z,98299.70
2018-01-04T06:20:48.050Z,98307.24
2018-01-04T06:23:15.559Z,98305.70
2018-01-04T06:25:43.010Z,98294.13
2018-01-04T06:28:10.480Z,98291.08
2018-01-04T06:30:37.973Z,98298.33
2018-01-04T06:33:05.457Z,98303.78
2018-01-04T06:35:32.924Z,98306.59
2018-01-04T06:38:00.400Z,98304.59
2018-01-04T06:40:27.863Z,98298.84
2018-01-04T06:42:55.326Z,98305.20
2018-01-04T06:45:22.788Z,98305.59
2018-01-04T06:47:50.272Z,98294.88
2018-01-04T06:50:17.742Z,98295.61
2018-01-04T06:52:45.182Z,98301.77
2018-01-04T06:55:12.656Z,98294.34
2018-01-04T06:57:40.145Z,98296.38
2018-01-04T07:00:07.625Z,98302.30
2018-01-04T07:02:35.087Z,98305.55
2018-01-04T07:05:02.559Z,98315.44
2018-01-04T07:07:30.034Z,98317.16
2018-01-04T07:09:57.532Z,98331.75
2018-01-04T07:12:25.001Z,98332.30
2018-01-04T07:14:52.440Z,98326.20
2018-01-04T07:17:19.918Z,98330.09
2018-01-04T07:19:47.373Z,98339.91
2018-01-04T07:22:14.865Z,98329.86
2018-01-04T07:24:42.329Z,98337.79
2018-01-04T07:27:10.038Z,98334.68
2018-01-04T07:29:37.488Z,98337.30
2018-01-04T07:32:05.054Z,98344.00
2018-01-04T07:34:32.517Z,98343.89
2018-01-04T07:36:59.989Z,98337.17
2018-01-04T07:39:27.452Z,98338.84
2018-01-04T07:41:54.917Z,98348.52
2018-01-04T07:44:22.368Z,98363.63
2018-01-04T07:46:49.837Z,98347.58
2018-01-04T07:49:17.309Z,98340.08
2018-01-04T07:51:44.761Z,98359.67
2018-01-04T07:54:12.239Z,98363.56
2018-01-04T07:56:39.702Z,98358.20
2018-01-04T07:59:07.183Z,98358.38
2018-01-04T08:01:34.643Z,98358.97
2018-01-04T08:04:02.114Z,98357.03
2018-01-04T08:06:29.579Z,98366.13
2018-01-04T08:08:57.065Z,98366.69
2018-01-04T08:11:24.534Z,98385.58
2018-01-04T08:13:51.992Z,98375.38
2018-01-04T08:16:19.459Z,98384.64
2018-01-04T08:18:46.933Z,98405.36
2018-01-04T08:21:14.390Z,98397.53
2018-01-04T08:23:41.895Z,98394.92
2018-01-04T08:26:09.355Z,98387.23
2018-01-04T08:28:36.811Z,98395.55
2018-01-04T08:31:04.284Z,98402.55
2018-01-04T08:33:31.744Z,98406.36
2018-01-04T08:35:59.201Z,98404.97
2018-01-04T08:38:26.659Z,98408.84
2018-01-04T08:40:54.120Z,98406.05
2018-01-04T08:43:21.608Z,98406.57
2018-01-04T08:45:49.070Z,98399.62
2018-01-04T08:48:16.541Z,98393.83
2018-01-04T08:50:44.143Z,98396.66
2018-01-04T08:53:11.636Z,98402.52
2018-01-04T08:55:39.103Z,98388.20
2018-01-04T08:58:06.586Z,98403.03
2018-01-04T09:00:34.077Z,98397.80
2018-01-04T09:03:01.563Z,98402.70
2018-01-04T09:05:29.018Z,98396.49
2018-01-04T09:07:56.483Z,98397.50
2018-01-04T09:10:23.943Z,98406.52
2018-01-04T09:12:51.414Z,98397.77
2018-01-04T09:15:18.882Z,98405.24
2018-01-04T09:17:46.343Z,98416.53
2018-01-04T09:20:13.803Z,98408.91
2018-01-04T09:22:41.278Z,98411.97
2018-01-04T09:25:08.750Z,98407.05
2018-01-04T09:27:36.212Z,98411.12
2018-01-04T09:30:03.694Z,98417.30
2018-01-04T09:32:31.150Z,98412.45
2018-01-04T09:34:58.624Z,98402.72
2018-01-04T09:37:26.082Z,98402.34
2018-01-04T09:39:53.545Z,98412.11
2018-01-04T09:42:21.010Z,98413.08
2018-01-04T09:44:48.476Z,98408.89
2018-01-04T09:47:15.950Z,98417.55
2018-01-04T09:49:43.419Z,98412.12
2018-01-04T09:52:10.879Z,98410.77
2018-01-04T09:54:38.373Z,98412.88
2018-01-04T09:57:05.825Z,98403.21
2018-01-04T09:59:33.319Z,98396.17
2018-01-04T10:02:00.784Z,98402.00
2018-01-04T10:04:28.233Z,98408.25
2018-01-04T10:06:55.701Z,98406.50
2018-01-04T10:09:23.168Z,98389.57
2018-01-04T10:11:50.633Z,98398.91
2018-01-04T10:14:18.106Z,98388.95
2018-01-04T10:16:45.575Z,98393.66
2018-01-04T10:19:13.024Z,98389.06
2018-01-04T10:21:40.481Z,98381.38
2018-01-04T10:24:07.944Z,98393.99
2018-01-04T10:26:35.410Z,98384.56
2018-01-04T10:29:02.898Z,98387.66
2018-01-04T10:31:30.372Z,98388.43
2018-01-04T10:33:57.848Z,98391.25
2018-01-04T10:36:25.342Z,98383.59
2018-01-04T10:38:52.803Z,98394.66
2018-01-04T10:41:20.293Z,98388.53
2018-01-04T10:43:47.754Z,98394.77
2018-01-04T10:46:15.209Z,98399.88
2018-01-04T10:48:42.684Z,98394.16
2018-01-04T10:51:10.157Z,98400.48
2018-01-04T10:53:37.646Z,98389.09
2018-01-04T10:56:05.099Z,98393.84
2018-01-04T10:58:32.579Z,98387.77
2018-01-04T11:01:05.861Z,98401.15
2018-01-04T11:03:33.323Z,98391.07
2018-01-04T11:06:00.781Z,98387.13
2018-01-04T11:08:28.248Z,98371.98
2018-01-04T11:10:55.713Z,98379.13
2018-01-04T11:13:23.332Z,98379.19
2018-01-04T11:15:50.815Z,98375.25
2018-01-04T11:18:18.284Z,98380.61
2018-01-04T11:20:45.839Z,98392.56
2018-01-04T11:23:13.317Z,98370.45
2018-01-04T11:25:40.805Z,98371.43
2018-01-04T11:28:08.268Z,98364.91
2018-01-04T11:30:35.748Z,98367.20
2018-01-04T11:33:03.191Z,98368.56
2018-01-04T11:35:30.676Z,98363.83
2018-01-04T11:37:58.127Z,98354.50
2018-01-04T11:40:25.571Z,98349.70
2018-01-04T11:42:53.036Z,98351.53
2018-01-04T11:45:20.480Z,98341.94
2018-01-04T11:47:47.954Z,98344.45
2018-01-04T11:50:15.453Z,98335.81
2018-01-04T11:52:42.928Z,98336.98
2018-01-04T11:55:10.394Z,98334.39
2018-01-04T11:57:37.988Z,98339.59
2018-01-04T12:00:05.666Z,98318.63
2018-01-04T12:02:33.157Z,98328.05
2018-01-04T12:05:00.616Z,98325.92
2018-01-04T12:07:28.086Z,98315.70
2018-01-04T12:09:55.559Z,98317.49
2018-01-04T12:12:23.026Z,98315.72
2018-01-04T12:14:50.509Z,98320.59
2018-01-04T12:17:17.969Z,98319.56
2018-01-04T12:19:45.451Z,98309.50
2018-01-04T12:22:12.896Z,98310.14
2018-01-04T12:24:40.399Z,98314.28
2018-01-04T12:27:07.859Z,98306.19
2018-01-04T12:29:35.332Z,98302.82
2018-01-04T12:32:02.811Z,98298.10
2018-01-04T12:34:30.254Z,98307.84
2018-01-04T12:36:57.704Z,98310.61
2018-01-04T12:39:25.173Z,98304.80
2018-01-04T12:41:52.646Z,98307.20
2018-01-04T12:44:20.106Z,98305.73
2018-01-04T12:46:47.577Z,98300.94
2018-01-04T12:49:15.045Z,98305.47
2018-01-04T12:51:42.552Z,98296.93
2018-01-04T12:54:10.045Z,98291.96
2018-01-04T12:56:37.502Z,98295.13
2018-01-04T12:59:04.975Z,98293.93
2018-01-04T13:01:32.910Z,98288.04
2018-01-04T13:04:00.382Z,98279.30
2018-01-04T13:06:27.859Z,98272.48
2018-01-04T13:08:55.324Z,98271.67
2018-01-04T13:11:22.788Z,98279.06
2018-01-04T13:13:50.353Z,98272.22
2018-01-04T13:16:17.799Z,98267.89
2018-01-04T13:18:45.266Z,98276.72
2018-01-04T13:21:12.718Z,98274.73
2018-01-04T13:23:40.189Z,98287.53
2018-01-04T13:26:07.653Z,98278.98
2018-01-04T13:28:35.138Z,98280.56
2018-01-04T13:31:02.597Z,98272.64
2018-01-04T13:33:30.052Z,98275.04
2018-01-04T13:35:57.516Z,98279.75
2018-01-04T13:38:24.960Z,98283.20
2018-01-04T13:40:52.475Z,98291.81
2018-01-04T13:43:19.933Z,98291.70
2018-01-04T13:45:47.398Z,98290.77
2018-01-04T13:48:14.867Z,98291.44
2018-01-04T13:50:42.362Z,98288.13
2018-01-04T13:53:09.823Z,98288.20
2018-01-04T13:55:37.341Z,98293.61
2018-01-04T13:58:04.812Z,98297.39
2018-01-04T14:00:32.279Z,98296.45
2018-01-04T14:02:59.885Z,98289.09
2018-01-04T14:05:27.486Z,98287.27
2018-01-04T14:07:54.962Z,98274.93
2018-01-04T14:10:22.419Z,98271.39
2018-01-04T14:12:49.894Z,98270.92
2018-01-04T14:15:17.392Z,98268.67
2018-01-04T14:17:44.865Z,98273.07
2018-01-04T14:20:12.366Z,98270.47
2018-01-04T14:22:39.886Z,98264.81
2018-01-04T14:25:07.339Z,98271.87
2018-01-04T14:27:34.802Z,98268.98
2018-01-04T14:30:02.273Z,98259.20
2018-01-04T14:32:29.883Z,98251.73
2018-01-04T14:34:57.329Z,98262.44
2018-01-04T14:37:24.830Z,98253.55
2018-01-04T14:39:52.320Z,98251.80
2018-01-04T14:42:19.845Z,98251.78
2018-01-04T14:44:47.373Z,98246.19
2018-01-04T14:47:14.837Z,98244.95
2018-01-04T14:49:42.359Z,98241.29
2018-01-04T14:52:09.822Z,98235.29
2018-01-04T14:54:37.458Z,98232.22
2018-01-04T14:57:04.939Z,98234.55
2018-01-04T14:59:32.413Z,98243.13
2018-01-04T15:01:59.892Z,98244.00
2018-01-04T15:04:27.358Z,98234.41
2018-01-04T15:06:54.832Z,98233.53
2018-01-04T15:09:23.935Z,98233.02
2018-01-04T15:11:51.470Z,98237.86
2018-01-04T15:14:18.949Z,98233.26
2018-01-04T15:16:46.486Z,98230.45
2018-01-04T15:19:13.971Z,98226.22
2018-01-04T15:21:41.472Z,98227.30
2018-01-04T15:24:08.943Z,98228.41
2018-01-04T15:26:36.474Z,98228.95
2018-01-04T15:29:03.930Z,98237.89
2018-01-04T15:31:31.419Z,98226.20
2018-01-04T15:33:58.874Z,98225.30
2018-01-04T15:36:26.353Z,98231.75
2018-01-04T15:38:53.880Z,98229.22
2018-01-04T15:41:21.576Z,98228.36
2018-01-04T15:43:49.045Z,98216.98
2018-01-04T15:46:16.515Z,98213.14
2018-01-04T15:48:44.026Z,98213.64
2018-01-04T15:51:11.505Z,98209.52
2018-01-04T15:53:39.044Z,98204.43
2018-01-04T15:56:06.543Z,98203.95
2018-01-04T15:58:34.008Z,98190.61
2018-01-04T16:01:01.522Z,98188.05
2018-01-04T16:03:29.064Z,98183.25
2018-01-04T16:05:56.549Z,98175.87
2018-01-04T16:08:24.023Z,98178.29
2018-01-04T16:10:51.500Z,98171.64
2018-01-04T16:13:19.014Z,98170.61
2018-01-04T16:15:46.489Z,98156.80
2018-01-04T16:18:14.457Z,98160.80
2018-01-04T16:20:41.930Z,98166.39
2018-01-04T16:23:09.407Z,98156.34
2018-01-04T16:25:36.893Z,98154.70
2018-01-04T16:28:04.369Z,98149.28
2018-01-04T16:30:31.919Z,98139.31
2018-01-04T16:32:59.470Z,98138.04
2018-01-04T16:35:27.036Z,98139.27
2018-01-04T16:37:54.547Z,98132.44
2018-01-04T16:40:22.058Z,98131.28
2018-01-04T16:42:49.548Z,98130.30
2018-01-04T16:45:17.137Z,98127.47
2018-01-04T16:47:44.584Z,98126.19
2018-01-04T16:50:12.042Z,98126.34
2018-01-04T16:52:39.515Z,98121.30
2018-01-04T16:55:06.969Z,98116.28
2018-01-04T16:57:34.440Z,98114.48
2018-01-04T17:00:01.926Z,98107.09
2018-01-04T17:02:29.400Z,98106.39
2018-01-04T17:04:56.875Z,98105.70
2018-01-04T17:07:24.496Z,98105.98
2018-01-04T17:09:52.093Z,98098.42
2018-01-04T17:12:19.571Z,98105.91
2018-01-04T17:14:47.030Z,98095.73
2018-01-04T17:17:14.491Z,98086.48
2018-01-04T17:19:41.954Z,98088.59
2018-01-04T17:22:09.403Z,98087.05
2018-01-04T17:24:36.869Z,98077.82
2018-01-04T17:27:04.341Z,98074.30
2018-01-04T17:29:31.881Z,98064.98
2018-01-04T17:31:59.370Z,98058.93
2018-01-04T17:34:26.888Z,98052.27
2018-01-04T17:36:54.402Z,98056.43
2018-01-04T17:39:21.910Z,98059.70
2018-01-04T17:41:49.384Z,98047.23
2018-01-04T17:44:16.928Z,98054.45
2018-01-04T17:46:44.396Z,98053.53
2018-01-04T17:49:11.940Z,98048.84
2018-01-04T17:51:39.423Z,98053.32
2018-01-04T17:54:06.897Z,98048.30
2018-01-04T17:56:34.492Z,98045.56
2018-01-04T17:59:01.990Z,98032.80
2018-01-04T18:01:29.554Z,98037.41
2018-01-04T18:03:57.075Z,98034.26
2018-01-04T18:06:24.640Z,98029.44
2018-01-04T18:08:52.143Z,98028.88
2018-01-04T18:11:19.744Z,98019.25
2018-01-04T18:13:47.213Z,98015.55
2018-01-04T18:16:14.827Z,98014.08
2018-01-04T18:18:42.323Z,98014.38
2018-01-04T18:21:09.858Z,98012.26
2018-01-04T18:23:37.329Z,98013.81
2018-01-04T18:26:04.935Z,98004.56
2018-01-04T18:28:32.553Z,98004.09
2018-01-04T18:31:00.052Z,98008.89
2018-01-04T18:33:27.680Z,98006.39
2018-01-04T18:35:55.189Z,98010.45
2018-01-04T18:38:22.693Z,98015.80
2018-01-04T18:40:50.303Z,98014.39
2018-01-04T18:43:17.845Z,98014.72
2018-01-04T18:45:45.570Z,98005.21
2018-01-04T18:48:13.097Z,98002.86
2018-01-04T18:50:40.714Z,97991.98
2018-01-04T18:53:08.491Z,97991.90
2018-01-04T18:55:36.051Z,97990.56
2018-01-04T18:58:03.561Z,97985.77
2018-01-04T19:00:31.193Z,97982.03
2018-01-04T19:02:58.786Z,97974.08
2018-01-04T19:05:26.431Z,97968.77
2018-01-04T19:07:54.044Z,97966.66
2018-01-04T19:10:21.554Z,97972.37
2018-01-04T19:12:49.056Z,97966.16
2018-01-04T19:15:16.577Z,97966.22
2018-01-04T19:17:44.043Z,97962.05
2018-01-04T19:20:20.205Z,97967.52
2018-01-04T19:22:47.707Z,97961.38
2018-01-04T19:25:15.216Z,97965.44
2018-01-04T19:27:42.781Z,97962.06
2018-01-04T19:30:10.297Z,97960.03
2018-01-04T19:32:37.824Z,97961.72
2018-01-04T19:35:05.381Z,97958.10
2018-01-04T19:37:32.895Z,97956.02
2018-01-04T19:40:00.409Z,97954.27
2018-01-04T19:42:27.957Z,97955.00
2018-01-04T19:44:55.451Z,97958.69
2018-01-04T19:47:23.049Z,97951.16
2018-01-04T19:49:50.540Z,97944.02
2018-01-04T19:52:18.037Z,97937.32
2018-01-04T19:54:45.577Z,97936.13
2018-01-04T19:57:13.131Z,97932.41
2018-01-04T19:59:40.654Z,97927.78
2018-01-04T20:02:08.163Z,97920.16
2018-01-04T20:04:35.714Z,97926.55
2018-01-04T20:07:03.282Z,97914.10
2018-01-04T20:09:30.817Z,97914.42
2018-01-04T20:11:58.361Z,97909.77
2018-01-04T20:14:25.904Z,97900.59
2018-01-04T20:16:53.443Z,97898.06
2018-01-04T20:19:20.991Z,97892.20
2018-01-04T20:21:48.875Z,97884.06
2018-01-04T20:24:16.381Z,97880.38
2018-01-04T20:26:43.888Z,97876.14
2018-01-04T20:29:11.400Z,97865.59
2018-01-04T20:31:38.941Z,97876.53
2018-01-04T20:34:06.528Z,97871.38
2018-01-04T20:36:34.065Z,97878.96
2018-01-04T20:39:01.771Z,97879.05
2018-01-04T20:41:29.336Z,97865.13
2018-01-04T20:43:56.846Z,97866.00
2018-01-04T20:46:24.479Z,97863.59
2018-01-04T20:48:52.085Z,97859.51
2018-01-04T20:51:19.625Z,97851.56
2018-01-04T20:53:47.137Z,97836.30
2018-01-04T20:56:14.654Z,97842.20
2018-01-04T20:58:42.264Z,97839.59
2018-01-04T21:01:09.801Z,97834.23
2018-01-04T21:03:37.356Z,97819.27
2018-01-04T21:06:04.877Z,97819.72
2018-01-04T21:08:32.413Z,97815.58
2018-01-04T21:10:59.902Z,97810.36
2018-01-04T21:13:27.415Z,97798.95
2018-01-04T21:15:54.924Z,97795.12
2018-01-04T21:18:22.502Z,97809.28
2018-01-04T21:20:49.997Z,97794.26
2018-01-04T21:23:17.557Z,97788.38
2018-01-04T21:25:45.054Z,97793.16
2018-01-04T21:28:12.593Z,97802.41
2018-01-04T21:30:40.232Z,97801.16
2018-01-04T21:33:07.742Z,97803.73
2018-01-04T21:35:35.251Z,97801.21
2018-01-04T21:38:02.770Z,97807.73
2018-01-04T21:40:30.283Z,97806.68
2018-01-04T21:42:57.808Z,97802.45
2018-01-04T21:45:25.391Z,97804.95
2018-01-04T21:47:55.482Z,97807.75
2018-01-04T21:50:23.366Z,97801.55
2018-01-04T21:52:50.877Z,97811.77
2018-01-04T21:55:18.380Z,97803.07
2018-01-04T21:57:45.902Z,97806.33
2018-01-04T22:00:13.434Z,97805.63
2018-01-04T22:02:41.034Z,97796.21
2018-01-04T22:05:08.692Z,97802.06
2018-01-04T22:07:36.220Z,97802.29
2018-01-04T22:10:03.729Z,97791.70
2018-01-04T22:12:31.247Z,97787.53
2018-01-04T22:14:58.737Z,97795.85
2018-01-04T22:17:26.259Z,97793.43
2018-01-04T22:19:53.963Z,97804.00
2018-01-04T22:22:21.468Z,97797.71
2018-01-04T22:24:49.005Z,97791.64
2018-01-04T22:27:16.546Z,97790.58
2018-01-04T22:29:44.045Z,97793.27
2018-01-04T22:32:11.583Z,97797.19
2018-01-04T22:34:40.053Z,97797.64
2018-01-04T22:37:07.566Z,97795.55
2018-01-04T22:39:35.102Z,97784.20
2018-01-04T22:42:02.605Z,97780.83
2018-01-04T22:44:30.196Z,97779.39
2018-01-04T22:46:57.683Z,97773.05
2018-01-04T22:49:25.337Z,97776.37
2018-01-04T22:51:52.852Z,97784.45
2018-01-04T22:54:20.372Z,97786.41
2018-01-04T22:56:47.883Z,97797.69
2018-01-04T22:59:15.432Z,97796.36
2018-01-04T23:01:42.929Z,97797.60
2018-01-04T23:04:10.439Z,97802.96
2018-01-04T23:06:38.011Z,97807.73
2018-01-04T23:09:05.595Z,97807.34
2018-01-04T23:11:33.135Z,97798.26
2018-01-04T23:14:00.650Z,97802.55
2018-01-04T23:16:28.616Z,97807.02
2018-01-04T23:18:56.116Z,97803.51
2018-01-04T23:21:23.670Z,97804.51
2018-01-04T23:23:51.254Z,97806.41
2018-01-04T23:26:18.771Z,97814.15
2018-01-04T23:28:46.270Z,97814.55
2018-01-04T23:31:13.798Z,97816.13
2018-01-04T23:33:41.317Z,97823.56
2018-01-04T23:36:08.894Z,97815.50
2018-01-04T23:38:36.476Z,97814.55
2018-01-04T23:41:03.985Z,97818.38
2018-01-04T23:43:31.489Z,97822.22
2018-01-04T23:45:59.081Z,97814.67
2018-01-04T23:48:26.609Z,97815.05
2018-01-04T23:50:54.113Z,97813.16
2018-01-04T23:53:21.611Z,97812.52
2018-01-04T23:55:49.096Z,97808.00
2018-01-04T23:58:16.601Z,97806.28
